Aviation Digital Data Service (ADDS)

Output produced by METARs form (1938 UTC 25 March 2017)
found at http://www.aviationweather.gov/adds/metars/
 
LMML 251915Z 14006KT 9999 BKN007 15/15 Q1021 NOSIG
TAF LMML 251700Z 2518/2618 14010KT 8000 BKN006 
     TEMPO 2518/2618 SCT006 
     PROB40 2520/2606 4000 BR BKN004 
     PROB40 2521/2606 0050 FG BKN001 
     BECMG 2602/2605 07005KT